Time;durP1;ratioP1;P1;durP2;ratioP2;P2;SDS_P1;SDS_P2;PMS_P1;PMS_P2;Temp;Humidity;BMP_temperature;BMP_pressure;BME280_temperature;BME280_humidity;BME280_pressure;Samples;Min_cycle;Max_cycle;Signal;HPM_P1;HPM_P2
2022/11/19 00:01:16;;;;;;;59.50;27.98;;;;;;;-0.00;79.67;99981.66;10155728;29;20060;-80
2022/11/19 00:06:22;;;;;;;54.75;27.35;;;;;;;0.04;79.94;99981.47;10147838;29;20044;-77
2022/11/19 00:16:45;;;;;;;53.30;27.67;;;;;;;0.05;79.25;99979.66;10140666;29;20053;-77
2022/11/19 00:21:49;;;;;;;54.47;27.65;;;;;;;-0.10;78.62;99986.50;10153694;29;20044;-79
2022/11/19 00:26:51;;;;;;;53.55;28.45;;;;;;;-0.07;78.78;99995.13;10151838;29;20497;-78
2022/11/19 00:31:55;;;;;;;54.40;26.77;;;;;;;0.01;78.99;99991.31;10150668;29;20063;-79
2022/11/19 00:36:58;;;;;;;55.90;28.20;;;;;;;-0.07;78.96;99989.00;10144277;29;20072;-78
2022/11/19 00:42:01;;;;;;;55.53;27.83;;;;;;;-0.07;78.85;100000.41;10145910;29;20099;-79
2022/11/19 00:47:06;;;;;;;55.83;28.00;;;;;;;-0.08;78.65;100005.78;10145955;29;20112;-79
2022/11/19 00:52:09;;;;;;;49.42;27.15;;;;;;;-0.04;78.66;100015.25;10147695;29;20056;-78
2022/11/19 00:57:12;;;;;;;53.33;28.35;;;;;;;-0.03;78.26;100011.69;10152189;29;20041;-79
2022/11/19 01:02:16;;;;;;;54.85;28.63;;;;;;;-0.10;78.04;100010.25;10144891;29;20418;-79
2022/11/19 01:07:19;;;;;;;51.72;25.48;;;;;;;-0.22;78.17;100021.31;10144379;29;20118;-80
2022/11/19 01:12:22;;;;;;;47.38;23.13;;;;;;;-0.28;78.06;100025.06;10132818;29;20080;-78
2022/11/19 01:17:26;;;;;;;53.20;25.95;;;;;;;-0.31;77.90;100019.94;10150606;29;20501;-79
2022/11/19 01:22:29;;;;;;;47.42;24.98;;;;;;;-0.17;77.98;100022.84;10140879;29;20049;-79
2022/11/19 01:27:31;;;;;;;45.97;23.98;;;;;;;-0.15;78.23;100023.63;10146576;29;20072;-78
2022/11/19 01:32:35;;;;;;;48.00;22.90;;;;;;;-0.20;78.00;100027.41;10150712;29;20076;-79
2022/11/19 01:37:38;;;;;;;49.42;24.63;;;;;;;-0.22;78.08;100023.97;10140454;29;20044;-76
2022/11/19 01:42:52;;;;;;;48.75;24.55;;;;;;;-0.41;77.81;100031.78;10155827;29;20208;-77
2022/11/19 01:47:59;;;;;;;47.05;23.42;;;;;;;-0.35;77.99;100037.69;10135222;29;20111;-78
2022/11/19 01:53:02;;;;;;;46.75;22.75;;;;;;;-0.44;77.53;100043.31;10149699;29;20056;-78
2022/11/19 01:58:07;;;;;;;47.15;23.80;;;;;;;-0.28;78.32;100054.13;10140612;29;20108;-80
2022/11/19 02:03:12;;;;;;;45.25;22.63;;;;;;;-0.34;78.33;100049.94;10152761;29;20445;-78
2022/11/19 02:08:38;;;;;;;42.33;21.35;;;;;;;-0.41;77.68;100071.38;10143300;23;20072;-79
2022/11/19 02:13:45;;;;;;;41.22;20.65;;;;;;;-0.48;77.38;100065.50;10156028;29;20041;-77
2022/11/19 02:18:54;;;;;;;43.78;21.70;;;;;;;-0.28;78.84;100068.16;10183488;29;20029;-78
2022/11/19 02:24:28;;;;;;;44.45;21.63;;;;;;;-0.30;78.11;100074.44;10132999;29;20152;-78
2022/11/19 02:30:12;;;;;;;40.65;20.80;;;;;;;-0.36;77.42;100074.69;10116097;29;20574;-78
2022/11/19 02:35:23;;;;;;;39.72;20.38;;;;;;;-0.42;77.36;100081.06;10094417;29;20132;-78
2022/11/19 02:40:29;;;;;;;40.08;22.48;;;;;;;-0.49;77.47;100084.91;10105382;29;20076;-78
2022/11/19 02:45:35;;;;;;;36.92;19.20;;;;;;;-0.45;77.69;100091.75;10111265;29;20076;-78
2022/11/19 02:50:44;;;;;;;39.00;21.00;;;;;;;-0.46;77.53;100081.28;10107509;29;20053;-78
2022/11/19 02:56:09;;;;;;;39.60;20.25;;;;;;;-0.60;77.91;100081.81;10115697;29;20288;-78
2022/11/19 03:06:33;;;;;;;39.88;19.38;;;;;;;-0.92;77.92;100094.47;10117538;29;20040;-78
2022/11/19 03:11:36;;;;;;;39.65;20.35;;;;;;;-1.06;78.30;100094.16;10119984;29;20791;-78
2022/11/19 03:16:41;;;;;;;41.72;20.95;;;;;;;-1.12;78.31;100100.50;10147820;29;20041;-78
2022/11/19 03:21:51;;;;;;;42.03;20.17;;;;;;;-1.33;77.63;100094.25;10116782;29;20076;-80
2022/11/19 03:26:58;;;;;;;43.50;22.08;;;;;;;-1.28;77.80;100102.00;10126012;29;20083;-78
2022/11/19 03:32:07;;;;;;;43.92;21.20;;;;;;;-1.45;77.51;100107.88;10115661;29;20075;-78
2022/11/19 03:37:14;;;;;;;44.38;20.52;;;;;;;-1.38;77.81;100114.63;10130159;29;20072;-78
2022/11/19 03:42:20;;;;;;;41.95;20.13;;;;;;;-1.43;77.30;100113.94;10131844;29;20068;-77
2022/11/19 03:47:26;;;;;;;43.00;19.17;;;;;;;-1.47;76.74;100122.88;10120082;29;20080;-78
2022/11/19 03:52:32;;;;;;;40.22;20.05;;;;;;;-1.43;77.07;100127.97;10120240;29;20083;-77
2022/11/19 03:57:35;;;;;;;42.17;20.98;;;;;;;-1.48;76.96;100124.66;10109531;29;20127;-78
2022/11/19 04:02:37;;;;;;;38.58;18.58;;;;;;;-1.46;77.74;100125.44;10132503;29;20104;-78
2022/11/19 04:07:41;;;;;;;38.42;17.85;;;;;;;-1.59;78.37;100133.81;10115117;29;20045;-78
2022/11/19 04:12:44;;;;;;;41.75;18.08;;;;;;;-1.59;78.05;100142.63;10117179;29;20049;-78
2022/11/19 04:17:47;;;;;;;35.72;17.48;;;;;;;-1.62;78.87;100142.69;10130304;29;20041;-78
2022/11/19 04:22:52;;;;;;;38.55;17.20;;;;;;;-1.72;78.61;100139.53;10119336;29;20068;-78
2022/11/19 04:27:54;;;;;;;35.20;18.10;;;;;;;-1.77;78.62;100143.22;10123559;29;20076;-78
2022/11/19 04:32:57;;;;;;;38.10;18.02;;;;;;;-1.85;78.38;100151.38;10122555;29;20128;-78
2022/11/19 04:38:01;;;;;;;35.50;18.23;;;;;;;-1.98;78.24;100150.91;10118183;29;20048;-78
2022/11/19 04:43:04;;;;;;;33.28;16.65;;;;;;;-1.96;78.41;100162.28;10125665;29;20084;-78
2022/11/19 04:48:07;;;;;;;30.83;13.73;;;;;;;-2.08;77.39;100163.53;10109525;29;20128;-80
2022/11/19 04:53:11;;;;;;;29.38;15.77;;;;;;;-2.05;77.58;100161.72;10115121;29;20496;-79
2022/11/19 04:58:14;;;;;;;26.10;14.68;;;;;;;-2.13;76.46;100167.22;10112472;29;20053;-79
2022/11/19 05:03:17;;;;;;;26.27;13.75;;;;;;;-2.14;75.85;100176.91;10110314;29;20471;-79
2022/11/19 05:08:21;;;;;;;28.60;13.38;;;;;;;-2.12;76.88;100172.44;10132275;29;20158;-79
2022/11/19 05:13:24;;;;;;;26.48;13.98;;;;;;;-2.18;76.44;100170.00;10129174;29;20045;-80
2022/11/19 05:18:26;;;;;;;26.33;13.88;;;;;;;-2.17;76.89;100178.75;10119609;29;20095;-80
2022/11/19 05:23:31;;;;;;;24.75;13.20;;;;;;;-2.24;75.99;100180.72;10118552;29;20455;-79
2022/11/19 05:28:33;;;;;;;23.90;12.65;;;;;;;-2.31;75.80;100194.97;10130325;29;20048;-77
2022/11/19 05:33:41;;;;;;;26.33;14.25;;;;;;;-2.27;76.61;100201.03;10118113;29;20056;-80
2022/11/19 05:38:45;;;;;;;27.85;13.60;;;;;;;-2.32;77.80;100196.75;10115584;29;20799;-80
2022/11/19 05:43:48;;;;;;;26.60;14.48;;;;;;;-2.54;76.57;100199.16;10112127;29;20128;-79
2022/11/19 05:48:51;;;;;;;25.60;13.80;;;;;;;-2.46;76.66;100211.25;10111637;29;20483;-81
2022/11/19 05:53:55;;;;;;;27.60;13.15;;;;;;;-2.48;76.53;100220.94;10119621;29;20048;-80
2022/11/19 05:58:58;;;;;;;31.52;15.13;;;;;;;-2.51;76.54;100214.84;10111893;29;20048;-80
2022/11/19 06:04:00;;;;;;;29.20;14.52;;;;;;;-2.54;76.87;100214.94;10124950;29;20060;-78
2022/11/19 06:09:05;;;;;;;27.23;13.73;;;;;;;-2.54;77.91;100225.47;10117195;29;20080;-78
2022/11/19 06:14:07;;;;;;;30.65;15.35;;;;;;;-2.61;77.82;100228.31;10108773;29;20411;-78
2022/11/19 06:19:10;;;;;;;29.00;14.70;;;;;;;-2.61;77.92;100233.56;10121413;29;20131;-78
2022/11/19 06:24:15;;;;;;;27.40;14.27;;;;;;;-2.66;77.93;100225.84;10122479;29;20040;-77
2022/11/19 06:29:19;;;;;;;28.63;14.77;;;;;;;-2.70;78.17;100233.84;10101884;29;20778;-77
2022/11/19 06:34:22;;;;;;;31.55;15.20;;;;;;;-2.68;78.26;100239.94;10118990;29;20404;-78
2022/11/19 06:39:26;;;;;;;31.35;15.93;;;;;;;-2.78;77.89;100244.59;10124459;29;20069;-77
2022/11/19 06:44:28;;;;;;;27.60;14.10;;;;;;;-2.77;78.00;100267.34;10129338;29;20048;-77
2022/11/19 06:49:31;;;;;;;28.25;14.02;;;;;;;-2.81;77.96;100263.09;10112612;29;20100;-77
2022/11/19 06:54:35;;;;;;;28.90;13.68;;;;;;;-2.78;77.40;100277.00;10105547;29;20048;-77
2022/11/19 06:59:44;;;;;;;29.40;14.05;;;;;;;-2.78;77.75;100273.50;10102344;29;20499;-77
2022/11/19 07:04:47;;;;;;;25.67;13.93;;;;;;;-2.83;78.57;100275.41;10123544;29;20052;-77
2022/11/19 07:09:51;;;;;;;26.58;13.25;;;;;;;-2.83;78.47;100278.03;10130401;29;20071;-77
2022/11/19 07:14:54;;;;;;;29.08;14.65;;;;;;;-2.80;79.39;100284.09;10134561;29;20044;-77
2022/11/19 07:20:05;;;;;;;25.33;13.45;;;;;;;-2.82;78.73;100293.78;10122072;29;20041;-78
2022/11/19 07:25:11;;;;;;;33.42;16.05;;;;;;;-2.81;79.60;100307.78;10121144;29;20080;-79
2022/11/19 07:30:15;;;;;;;32.78;15.23;;;;;;;-2.83;79.48;100315.69;10116970;29;20049;-77
2022/11/19 07:35:18;;;;;;;30.45;15.38;;;;;;;-2.70;79.77;100323.25;10132597;29;20463;-77
2022/11/19 07:40:22;;;;;;;35.20;16.08;;;;;;;-2.51;79.63;100327.97;10124623;29;20108;-77
2022/11/19 07:45:25;;;;;;;28.50;15.05;;;;;;;-2.09;79.97;100325.00;10121526;29;20052;-77
2022/11/19 07:50:28;;;;;;;27.73;14.38;;;;;;;-1.55;79.55;100333.03;10130982;29;20120;-76
2022/11/19 07:55:32;;;;;;;25.42;13.43;;;;;;;-1.20;76.21;100332.75;10136652;29;20575;-80
2022/11/19 08:00:36;;;;;;;26.92;14.05;;;;;;;-0.89;73.60;100346.69;10133025;29;20080;-77
2022/11/19 08:05:40;;;;;;;26.38;14.32;;;;;;;-0.35;74.44;100343.00;10134703;29;20048;-79
2022/11/19 08:10:44;;;;;;;21.38;12.77;;;;;;;-0.21;70.92;100348.63;10123722;29;20072;-77
2022/11/19 08:15:47;;;;;;;21.33;13.50;;;;;;;0.16;69.76;100339.31;10144685;29;20710;-77
2022/11/19 08:20:50;;;;;;;21.23;12.98;;;;;;;0.68;69.74;100345.16;10121124;29;20159;-79
2022/11/19 08:25:54;;;;;;;19.75;11.38;;;;;;;1.09;69.15;100345.25;10118377;29;20068;-79
2022/11/19 08:30:57;;;;;;;21.73;12.70;;;;;;;1.23;66.73;100342.00;10128878;29;20049;-78
2022/11/19 08:36:00;;;;;;;19.60;11.63;;;;;;;1.19;67.20;100341.28;10114198;29;20088;-77
2022/11/19 08:46:37;;;;;;;14.98;10.15;;;;;;;-0.57;67.75;100354.31;10044731;29;20128;-77
2022/11/19 08:51:40;;;;;;;20.67;12.13;;;;;;;-0.79;67.99;100361.28;10111529;29;20072;-77
2022/11/19 08:56:45;;;;;;;11.00;5.82;;;;;;;0.17;70.13;100352.47;10113303;29;20053;-77
2022/11/19 09:01:48;;;;;;;51.92;21.27;;;;;;;1.69;65.80;100353.22;10105365;29;20057;-77
2022/11/19 09:06:51;;;;;;;11.40;8.55;;;;;;;2.55;60.05;100344.84;10123007;29;20595;-77
2022/11/19 09:11:55;;;;;;;11.25;8.38;;;;;;;2.67;58.07;100346.03;10126574;29;20052;-77
2022/11/19 09:16:58;;;;;;;10.90;8.25;;;;;;;2.58;56.83;100349.16;10142731;29;20051;-77
2022/11/19 09:22:01;;;;;;;12.88;8.23;;;;;;;2.60;56.77;100352.56;10123805;29;20063;-78
2022/11/19 09:27:05;;;;;;;11.27;8.35;;;;;;;3.15;55.75;100357.78;10112331;29;20539;-78
2022/11/19 09:32:08;;;;;;;10.60;8.02;;;;;;;3.49;61.03;100356.94;10122046;29;20536;-78
2022/11/19 09:37:11;;;;;;;11.30;7.80;;;;;;;3.38;56.06;100350.47;10091176;29;20111;-75
2022/11/19 09:42:19;;;;;;;12.25;7.90;;;;;;;2.40;53.82;100357.00;10090167;29;20502;-78
2022/11/19 09:47:31;;;;;;;10.57;8.13;;;;;;;2.64;58.86;100354.16;10066681;29;20776;-80
2022/11/19 09:52:40;;;;;;;14.07;8.27;;;;;;;2.77;55.76;100360.56;10050415;29;20479;-77
2022/11/19 09:57:50;;;;;;;12.10;8.38;;;;;;;2.87;53.51;100347.69;10077416;29;20188;-77
2022/11/19 10:02:53;;;;;;;13.43;8.90;;;;;;;2.91;56.71;100361.66;10074866;29;20048;-77
2022/11/19 10:08:08;;;;;;;17.23;11.73;;;;;;;3.35;55.18;100351.47;10056317;29;20053;-80
2022/11/19 10:13:29;;;;;;;13.13;8.50;;;;;;;3.39;54.33;100354.81;10067039;29;20052;-78
2022/11/19 10:18:43;;;;;;;11.38;7.88;;;;;;;3.21;50.01;100357.50;10137629;29;20064;-76
2022/11/19 10:23:51;;;;;;;9.95;7.32;;;;;;;3.52;54.20;100357.72;10144713;29;20045;-76
2022/11/19 10:28:57;;;;;;;10.27;7.25;;;;;;;3.57;50.22;100348.56;10051154;29;20056;-76
2022/11/19 10:34:07;;;;;;;10.43;7.20;;;;;;;4.74;51.08;100350.13;10075946;29;20526;-78
2022/11/19 10:39:17;;;;;;;10.38;7.05;;;;;;;6.29;49.90;100340.81;10090390;29;20049;-78
2022/11/19 10:44:38;;;;;;;9.00;6.70;;;;;;;7.29;50.81;100343.13;10089408;29;20070;-78
2022/11/19 10:49:42;;;;;;;9.85;7.35;;;;;;;7.70;42.63;100336.75;10074051;29;20049;-79
2022/11/19 10:54:47;;;;;;;9.35;6.93;;;;;;;7.87;42.13;100332.88;10100530;29;20419;-80
2022/11/19 10:59:53;;;;;;;9.30;6.65;;;;;;;8.46;44.23;100324.25;10042683;29;20053;-76
2022/11/19 11:05:08;;;;;;;14.88;8.95;;;;;;;8.26;45.68;100331.88;10087749;29;20087;-77
2022/11/19 11:10:29;;;;;;;10.07;6.60;;;;;;;8.83;44.82;100325.03;10078455;29;20075;-77
2022/11/19 11:15:33;;;;;;;11.75;7.25;;;;;;;8.74;42.15;100323.06;10089484;29;20419;-77
2022/11/19 11:20:38;;;;;;;8.45;6.68;;;;;;;9.96;45.77;100315.50;10066094;29;20065;-79
2022/11/19 11:25:50;;;;;;;7.85;5.85;;;;;;;9.75;40.33;100312.63;10075317;29;20063;-77
2022/11/19 11:30:56;;;;;;;8.25;5.88;;;;;;;9.68;41.51;100308.72;10083282;29;20060;-75
2022/11/19 11:36:02;;;;;;;8.00;6.43;;;;;;;9.53;39.18;100307.25;10100748;29;21378;-78
2022/11/19 11:41:07;;;;;;;6.55;5.68;;;;;;;8.39;38.56;100295.22;10091158;29;20474;-78
2022/11/19 11:46:38;;;;;;;7.75;5.90;;;;;;;8.59;41.15;100290.25;10062987;29;20506;-76
2022/11/19 11:51:40;;;;;;;9.23;6.20;;;;;;;8.71;38.73;100289.31;10060799;29;20067;-80
2022/11/19 11:56:44;;;;;;;6.70;5.72;;;;;;;9.03;37.11;100278.88;10062162;29;20045;-77
2022/11/19 12:01:55;;;;;;;7.00;5.50;;;;;;;9.60;34.93;100276.28;10061888;29;20045;-78
2022/11/19 12:07:07;;;;;;;9.02;5.93;;;;;;;9.70;35.93;100275.44;10062413;29;20068;-78
2022/11/19 12:12:14;;;;;;;;;;;;;;;10.38;35.28;100276.25;10051486;29;20059;-78
2022/11/19 12:17:32;;;;;;;7.13;4.90;;;;;;;10.10;34.38;100284.88;10100139;29;19927;-77
2022/11/19 12:22:45;;;;;;;6.60;4.78;;;;;;;8.72;34.38;100282.13;10084171;29;20759;-77
2022/11/19 12:28:03;;;;;;;6.55;4.75;;;;;;;7.91;37.69;100283.56;10041284;29;20057;-75
2022/11/19 12:33:22;;;;;;;5.75;5.15;;;;;;;8.35;36.59;100277.66;10040996;29;20060;-78
2022/11/19 12:38:36;;;;;;;6.22;5.07;;;;;;;8.53;37.92;100283.53;10077720;29;20141;-77
2022/11/19 12:43:55;;;;;;;6.35;4.95;;;;;;;8.67;35.78;100279.81;10079809;29;20506;-78
2022/11/19 12:49:22;;;;;;;6.13;4.40;;;;;;;8.75;37.59;100276.56;10089949;29;20060;-78
2022/11/19 12:54:44;;;;;;;7.82;5.03;;;;;;;8.47;35.37;100273.25;10081618;29;20523;-77
2022/11/19 13:00:04;;;;;;;7.07;5.05;;;;;;;8.36;37.57;100265.13;10057659;29;21291;-78
2022/11/19 13:05:16;;;;;;;5.95;4.38;;;;;;;8.42;36.80;100269.19;10056656;29;20064;-79
2022/11/19 13:10:23;;;;;;;4.38;3.45;;;;;;;8.32;35.63;100266.34;10061870;29;20053;-79
2022/11/19 13:15:31;;;;;;;4.13;3.40;;;;;;;8.55;34.88;100273.53;10058876;29;20053;-78
2022/11/19 13:20:43;;;;;;;3.58;3.15;;;;;;;7.63;35.48;100265.97;10021996;29;20060;-78
2022/11/19 13:25:55;;;;;;;5.27;3.00;;;;;;;7.25;36.57;100267.66;10057125;29;20104;-77
2022/11/19 13:31:03;;;;;;;5.72;3.90;;;;;;;6.78;37.32;100258.38;10084771;29;20571;-78
2022/11/19 13:36:15;;;;;;;5.97;4.00;;;;;;;6.50;38.51;100256.72;10048621;29;20052;-77
2022/11/19 13:41:21;;;;;;;4.78;3.47;;;;;;;6.76;36.77;100254.94;10055282;29;20064;-78
2022/11/19 13:46:27;;;;;;;4.00;3.30;;;;;;;6.69;37.51;100258.13;10058098;29;20188;-77
2022/11/19 13:51:37;;;;;;;4.13;3.72;;;;;;;7.09;38.28;100255.47;10072090;29;20144;-79
2022/11/19 13:56:43;;;;;;;6.65;4.55;;;;;;;7.00;38.61;100248.97;10068104;29;20103;-77
2022/11/19 14:02:29;;;;;;;5.70;4.90;;;;;;;6.36;39.51;100246.94;10083463;29;20052;-79
2022/11/19 14:07:53;;;;;;;8.35;5.97;;;;;;;6.06;40.55;100255.13;10047130;29;20049;-79
2022/11/19 14:13:26;;;;;;;8.00;5.03;;;;;;;6.46;40.49;100247.19;10070975;29;20059;-78
2022/11/19 14:29:52;;;;;;;5.65;4.57;;;;;;;6.37;39.51;100242.47;10101428;29;21304;-84
2022/11/19 14:35:29;;;;;;;7.80;5.65;;;;;;;5.95;39.64;100246.94;10055477;29;20045;-78
2022/11/19 14:40:34;;;;;;;4.57;4.13;;;;;;;5.80;39.62;100243.44;10055538;29;20057;-78
2022/11/19 14:46:24;;;;;;;10.00;4.38;;;;;;;5.60;40.79;100254.50;10061441;29;20197;-77
2022/11/19 14:51:31;;;;;;;5.07;3.65;;;;;;;5.32;40.95;100242.03;10088219;29;20060;-77
2022/11/19 14:56:37;;;;;;;5.93;4.35;;;;;;;4.81;41.61;100253.88;10067361;29;20080;-76
2022/11/19 15:01:56;;;;;;;4.95;3.95;;;;;;;4.79;42.20;100252.25;10023522;29;20207;-79
2022/11/19 15:07:00;;;;;;;7.30;4.75;;;;;;;4.04;43.79;100248.63;10084479;29;20057;-78
2022/11/19 15:12:05;;;;;;;6.93;5.18;;;;;;;3.18;45.87;100245.28;10086851;29;20140;-77
2022/11/19 15:17:10;;;;;;;8.43;5.72;;;;;;;2.64;47.31;100245.41;10059868;29;20060;-77
2022/11/19 15:22:31;;;;;;;10.00;7.40;;;;;;;2.27;48.39;100244.53;10030758;29;20068;-78
2022/11/19 15:27:52;;;;;;;11.52;7.60;;;;;;;2.02;49.41;100241.34;10074499;29;20767;-77
2022/11/19 15:33:22;;;;;;;8.45;6.45;;;;;;;1.83;50.17;100241.38;10077976;29;20108;-79
2022/11/19 15:38:29;;;;;;;19.38;10.85;;;;;;;1.66;50.61;100248.31;10092456;29;20055;-79
2022/11/19 15:43:40;;;;;;;18.17;9.82;;;;;;;1.49;51.45;100235.00;10064804;29;20127;-80
2022/11/19 15:48:56;;;;;;;13.32;9.00;;;;;;;1.32;52.29;100233.13;10038938;29;20133;-80
2022/11/19 15:54:00;;;;;;;15.82;9.05;;;;;;;1.27;52.96;100241.25;10084752;29;20104;-76
2022/11/19 15:59:06;;;;;;;16.05;10.82;;;;;;;1.16;54.30;100234.72;10084729;29;20207;-80
2022/11/19 16:04:15;;;;;;;14.63;8.05;;;;;;;0.96;54.34;100238.22;10075564;29;20063;-82
2022/11/19 16:09:21;;;;;;;13.90;8.75;;;;;;;0.92;55.05;100234.88;10097471;29;20135;-80
2022/11/19 16:20:04;;;;;;;11.98;7.38;;;;;;;0.58;55.90;100244.25;10094674;29;20107;-79
2022/11/19 16:25:12;;;;;;;10.68;7.32;;;;;;;0.47;55.54;100251.75;10045729;29;20139;-80
2022/11/19 16:30:23;;;;;;;15.77;8.60;;;;;;;0.22;56.89;100251.91;10098459;29;20239;-78
2022/11/19 16:35:29;;;;;;;16.50;8.45;;;;;;;0.19;56.76;100249.38;10100253;29;20075;-76
2022/11/19 16:42:15;;;;;;;21.73;12.60;;;;;;;0.27;57.11;100249.91;10112153;29;20052;-78
2022/11/19 16:45:57;;;;;;;18.67;11.65;;;;;;;0.31;58.09;100248.03;10054322;29;20068;-77
2022/11/19 16:51:41;;;;;;;20.38;11.13;;;;;;;0.28;58.48;100242.88;10059032;29;20064;-77
2022/11/19 16:56:46;;;;;;;28.60;14.07;;;;;;;0.25;58.64;100238.56;10023433;29;20155;-78
2022/11/19 17:01:54;;;;;;;25.10;13.32;;;;;;;0.19;59.04;100244.06;10045399;29;20181;-77
2022/11/19 17:06:58;;;;;;;19.70;12.75;;;;;;;0.09;59.79;100242.75;10097033;29;20077;-76
2022/11/19 17:12:19;;;;;;;18.95;11.98;;;;;;;-0.12;59.52;100250.59;10058599;29;20067;-79
2022/11/19 17:17:39;;;;;;;22.58;13.98;;;;;;;-0.14;59.33;100251.56;10052236;29;20057;-77
2022/11/19 17:22:43;;;;;;;20.05;12.30;;;;;;;-0.21;59.46;100250.94;10084708;29;20085;-78
2022/11/19 17:27:50;;;;;;;20.02;11.68;;;;;;;-0.39;59.44;100265.69;10081478;29;20574;-78
2022/11/19 17:32:58;;;;;;;18.40;11.60;;;;;;;-0.37;60.52;100258.59;10075689;29;20059;-78
2022/11/19 17:38:09;;;;;;;25.85;13.00;;;;;;;-0.38;60.80;100262.16;10071780;29;20065;-78
2022/11/19 17:48:39;;;;;;;19.30;11.17;;;;;;;-0.58;61.56;100262.88;10085517;29;20062;-77
2022/11/19 17:53:42;;;;;;;28.95;14.80;;;;;;;-0.63;61.54;100266.59;10093525;29;20086;-78
2022/11/19 17:58:45;;;;;;;25.63;15.68;;;;;;;-0.66;61.66;100267.56;10080937;29;20132;-77
2022/11/19 18:03:49;;;;;;;27.75;15.70;;;;;;;-0.67;62.33;100272.91;10080474;29;20580;-78
2022/11/19 18:08:52;;;;;;;32.88;18.70;;;;;;;-0.68;62.53;100269.44;10079096;29;20056;-78
2022/11/19 18:13:57;;;;;;;33.70;18.67;;;;;;;-0.76;62.78;100271.47;10087377;29;20052;-78
2022/11/19 18:19:01;;;;;;;32.70;19.08;;;;;;;-0.82;63.44;100279.63;10079806;29;20705;-78
2022/11/19 18:24:04;;;;;;;35.80;20.85;;;;;;;-0.86;63.87;100281.47;10093698;29;20057;-79
2022/11/19 18:29:07;;;;;;;39.33;21.17;;;;;;;-0.89;64.28;100281.59;10077231;29;20093;-79
2022/11/19 18:34:18;;;;;;;40.22;22.42;;;;;;;-0.91;64.45;100280.78;10078205;29;20064;-79
2022/11/19 18:39:21;;;;;;;51.83;27.90;;;;;;;-0.84;64.90;100279.66;10103225;29;20063;-80
2022/11/19 18:44:33;;;;;;;48.75;25.02;;;;;;;-0.91;64.89;100278.16;10095193;29;20202;-79
2022/11/19 18:49:38;;;;;;;37.33;21.52;;;;;;;-0.91;64.87;100274.66;10058930;29;20060;-78
2022/11/19 18:54:41;;;;;;;44.15;24.05;;;;;;;-0.98;65.10;100266.09;10068552;29;20056;-79
2022/11/19 18:59:44;;;;;;;38.70;20.52;;;;;;;-1.00;64.98;100266.16;10089488;29;20522;-79
2022/11/19 19:04:48;;;;;;;37.88;21.05;;;;;;;-1.04;65.63;100271.56;10084763;29;20101;-79
2022/11/19 19:09:52;;;;;;;33.78;19.88;;;;;;;-1.09;65.74;100268.25;10083376;29;20057;-79
2022/11/19 19:14:56;;;;;;;35.13;20.55;;;;;;;-1.09;65.98;100265.63;10088084;29;20137;-79
2022/11/19 19:20:00;;;;;;;35.83;20.85;;;;;;;-1.08;65.64;100268.19;10080972;29;20582;-79
2022/11/19 19:25:04;;;;;;;37.00;19.58;;;;;;;-1.07;66.28;100263.78;10089475;29;20067;-79
2022/11/19 19:30:11;;;;;;;35.58;19.45;;;;;;;-1.15;65.70;100271.97;10084116;29;20049;-79
2022/11/19 19:35:15;;;;;;;34.58;18.13;;;;;;;-1.29;65.74;100267.19;10086029;29;20056;-78
2022/11/19 19:40:18;;;;;;;34.70;20.10;;;;;;;-1.40;66.48;100272.81;10089783;29;20056;-78
2022/11/19 19:45:21;;;;;;;34.47;19.88;;;;;;;-1.50;66.44;100273.16;10111764;29;20048;-78
2022/11/19 19:50:25;;;;;;;28.25;16.73;;;;;;;-1.49;66.70;100259.91;10099309;29;20092;-78
2022/11/19 19:55:28;;;;;;;31.55;17.77;;;;;;;-1.57;66.69;100274.25;10088961;29;20622;-80
2022/11/19 20:00:31;;;;;;;29.75;17.48;;;;;;;-1.57;66.75;100269.00;10084157;29;20049;-79
2022/11/19 20:05:35;;;;;;;30.88;17.45;;;;;;;-1.54;66.96;100268.88;10076983;29;20056;-80
2022/11/19 20:10:38;;;;;;;36.80;19.05;;;;;;;-1.51;67.29;100261.75;10074647;29;20522;-79
2022/11/19 20:15:41;;;;;;;34.25;19.33;;;;;;;-1.56;66.64;100261.06;10084036;29;20076;-79
2022/11/19 20:20:45;;;;;;;48.63;24.98;;;;;;;-1.67;66.73;100252.63;10070656;29;20049;-80
2022/11/19 20:25:48;;;;;;;40.50;23.52;;;;;;;-1.71;67.36;100246.59;10074547;29;20087;-79
2022/11/19 20:30:51;;;;;;;36.35;21.42;;;;;;;-1.65;67.53;100253.44;10084408;29;20189;-79
2022/11/19 20:35:55;;;;;;;38.72;22.40;;;;;;;-1.70;67.02;100244.81;10119974;29;20139;-79
2022/11/19 20:40:59;;;;;;;36.53;20.02;;;;;;;-1.71;67.46;100251.84;10089392;29;20061;-80
2022/11/19 20:46:07;;;;;;;40.70;20.08;;;;;;;-1.69;67.15;100244.78;10081746;29;20131;-80
2022/11/19 20:51:11;;;;;;;32.22;19.55;;;;;;;-1.75;67.19;100254.66;10081822;29;20053;-80
2022/11/19 20:56:14;;;;;;;34.67;19.65;;;;;;;-1.83;66.72;100251.41;10074855;29;20063;-78
2022/11/19 21:01:17;;;;;;;35.60;20.33;;;;;;;-1.90;67.01;100254.22;10078651;29;20056;-77
2022/11/19 21:06:21;;;;;;;31.80;19.30;;;;;;;-1.87;67.25;100245.34;10079838;29;20530;-80
2022/11/19 21:11:24;;;;;;;32.22;18.77;;;;;;;-1.98;67.17;100250.97;10090152;29;20470;-81
2022/11/19 21:16:28;;;;;;;34.03;18.20;;;;;;;-2.12;67.10;100254.03;10076350;29;20132;-79
2022/11/19 21:21:33;;;;;;;37.28;19.58;;;;;;;-2.21;67.35;100243.78;10093802;29;20582;-80
2022/11/19 21:26:36;;;;;;;40.03;21.08;;;;;;;-2.27;67.71;100235.22;10086587;29;20052;-79
2022/11/19 21:31:40;;;;;;;31.58;19.35;;;;;;;-2.37;67.69;100242.53;10088124;29;20048;-80
2022/11/19 21:36:46;;;;;;;36.20;20.67;;;;;;;-2.40;67.58;100242.63;10094654;29;20142;-80
2022/11/19 21:41:48;;;;;;;41.28;22.15;;;;;;;-2.47;68.11;100249.81;10088930;29;20075;-80
2022/11/19 21:46:51;;;;;;;31.02;18.52;;;;;;;-2.93;69.19;100247.63;10081700;29;20063;-78
2022/11/19 21:51:55;;;;;;;28.70;17.30;;;;;;;-3.03;70.17;100250.53;10066015;29;20052;-81
2022/11/19 21:56:59;;;;;;;38.25;21.10;;;;;;;-3.01;70.12;100248.72;10104848;29;20070;-80
2022/11/19 22:02:02;;;;;;;34.90;18.75;;;;;;;-3.42;71.34;100244.56;10119786;29;20047;-78
2022/11/19 22:07:06;;;;;;;29.48;17.15;;;;;;;-3.48;72.39;100242.97;10078993;29;20591;-80
2022/11/19 22:12:09;;;;;;;25.48;15.10;;;;;;;-3.47;72.64;100236.78;10067950;29;20077;-81
2022/11/19 22:17:12;;;;;;;31.25;17.95;;;;;;;-3.24;72.70;100230.06;10089982;29;20053;-81
2022/11/19 22:22:16;;;;;;;29.50;17.13;;;;;;;-3.13;71.63;100235.03;10061748;29;20056;-81
2022/11/19 22:27:19;;;;;;;34.92;19.02;;;;;;;-3.06;71.14;100242.72;10073343;29;20177;-80
2022/11/19 22:32:21;;;;;;;36.80;20.88;;;;;;;-2.97;70.75;100231.94;10074350;29;20135;-81
2022/11/19 22:37:26;;;;;;;33.28;20.80;;;;;;;-3.08;70.23;100223.50;10088699;29;20120;-78
2022/11/19 22:42:29;;;;;;;51.42;26.10;;;;;;;-3.18;70.11;100227.31;10139199;29;20481;-80
2022/11/19 22:47:31;;;;;;;41.30;23.40;;;;;;;-3.20;70.42;100236.97;10131775;29;20053;-78
2022/11/19 22:52:36;;;;;;;47.17;25.88;;;;;;;-3.09;70.51;100240.19;10124301;29;20052;-79
2022/11/19 22:57:38;;;;;;;53.13;28.65;;;;;;;-3.04;70.47;100233.03;10120680;29;20061;-80
2022/11/19 23:02:41;;;;;;;39.78;22.27;;;;;;;-2.98;70.23;100230.22;10137643;29;20045;-77
2022/11/19 23:07:46;;;;;;;37.20;20.38;;;;;;;-2.99;70.13;100223.25;10138651;29;20464;-78
2022/11/19 23:18:23;;;;;;;39.83;21.02;;;;;;;-2.99;70.72;100222.38;10008055;29;20673;-80
2022/11/19 23:23:27;;;;;;;37.38;21.38;;;;;;;-3.00;70.87;100211.00;10114151;29;20371;-78
2022/11/19 23:28:32;;;;;;;36.58;19.88;;;;;;;-2.93;70.75;100210.84;10120956;29;20422;-78
2022/11/19 23:33:36;;;;;;;34.60;20.23;;;;;;;-3.12;70.70;100206.09;10127540;29;20040;-80
2022/11/19 23:38:40;;;;;;;34.28;20.17;;;;;;;-3.11;70.98;100196.44;10131599;29;20060;-79
2022/11/19 23:43:43;;;;;;;36.72;20.77;;;;;;;-3.05;70.87;100191.88;10114300;29;20053;-80
2022/11/19 23:48:48;;;;;;;39.75;21.38;;;;;;;-3.11;70.57;100192.06;10112991;29;20499;-80
2022/11/19 23:53:52;;;;;;;42.03;21.95;;;;;;;-3.25;70.70;100187.19;10130530;29;20585;-76
2022/11/19 23:58:55;;;;;;;37.58;20.88;;;;;;;-3.31;71.00;100189.97;10129144;29;20056;-80
